Portada
METAR-TAF:

METAR-TAF

Aeroports :

Amman-Queen Alia, Jordània

latitud: 31-40N, longitud: 035-58E, altitud: 721 m

Observació

L'informe es va fer fa 39 minuts, a les 23:00 UTC
Vent 10 kt del Est
Temperatura 17°C
Humitat 77%
Pressió 1016 hPa
Visibilitat: 6000 m

METAR: OJAI 132300Z 08010KT 6000 NSC 17/13 Q1016 NOSIG

Hora: 01:39 (23:39 UTC)

Pronòstic

L'informe es va fer fa 6 hores i 49 minuts, a les 16:50 UTC
Pronòstic vàlid del 13 a les 18 UTC al 14 a les 24 UTC
Vent 12 kt del Est
Visibilitat: 5000 m
calitja
Probabilitat 30% :
Temporalment
l' 14 a les 04 UTC al 14 a les 12 UTC
Visibilitat: 4000 m
Escasses núvols a una alçada de 4000 ft
Núvols disperses a una alçada de 7000 ft
pluja

TAF: OJAI 131650Z 1318/1424 10012KT 5000 HZ NSC PROB30 TEMPO 1404/1412 4000 -RA FEW040 SCT070

Observacions i pronòstics meteorològics de més de 4000 aeroports (METAR i TAF).

Les estacions disponibles són els punts grocs i vermells al mapa.

Posi el ratolí al punt desitjat per veure el nom de l'estació.

Feu clic per veure les observacions i els pronòstics meteorològics.

Per canviar el mapa: feu clic els botons verds amb una creu de color negre per apropar; al botó verd amb un guió per allunyar la imatge; o en les fletxes verdes per a mapes adjacents.


METAR-TAF: